createdAt,value
2022-08-24T00:01:57.981Z,96800.63
2022-08-24T00:04:26.719Z,96807.31
2022-08-24T00:06:56.360Z,96792.94
2022-08-24T00:09:25.970Z,96797.63
2022-08-24T00:11:53.865Z,96802.41
2022-08-24T00:14:21.856Z,96796.22
2022-08-24T00:16:49.906Z,96801.25
2022-08-24T00:19:18.752Z,96802.91
2022-08-24T00:21:46.786Z,96797.06
2022-08-24T00:24:14.728Z,96799.06
2022-08-24T00:26:45.963Z,96796.53
2022-08-24T00:29:14.152Z,96788.16
2022-08-24T00:31:42.164Z,96792.00
2022-08-24T00:34:10.556Z,96793.84
2022-08-24T00:36:38.442Z,96791.97
2022-08-24T00:39:08.024Z,96797.81
2022-08-24T00:41:39.207Z,96792.66
2022-08-24T00:44:09.839Z,96785.78
2022-08-24T00:46:44.674Z,96789.44
2022-08-24T00:49:19.675Z,96790.47
2022-08-24T00:51:55.570Z,96790.25
2022-08-24T00:54:26.893Z,96790.41
2022-08-24T00:56:59.710Z,96787.06
2022-08-24T00:59:33.522Z,96786.41
2022-08-24T01:02:15.548Z,96785.06
2022-08-24T01:04:50.504Z,96789.38
2022-08-24T01:07:18.587Z,96785.19
2022-08-24T01:09:46.996Z,96787.50
2022-08-24T01:12:14.963Z,96787.66
2022-08-24T01:14:45.094Z,96785.00
2022-08-24T01:17:33.039Z,96786.28
2022-08-24T01:20:05.492Z,96789.81
2022-08-24T01:22:50.923Z,96783.97
2022-08-24T01:25:21.386Z,96786.78
2022-08-24T01:27:51.771Z,96789.09
2022-08-24T01:30:21.953Z,96794.28
2022-08-24T01:33:01.460Z,96791.22
2022-08-24T01:35:31.381Z,96789.56
2022-08-24T01:38:03.331Z,96789.22
2022-08-24T01:40:36.671Z,96792.88
2022-08-24T01:43:07.367Z,96785.88
2022-08-24T01:45:35.928Z,96785.88
2022-08-24T01:48:06.052Z,96785.63
2022-08-24T01:50:35.012Z,96792.81
2022-08-24T01:53:05.943Z,96790.75
2022-08-24T01:55:36.889Z,96789.72
2022-08-24T01:58:05.455Z,96793.25
2022-08-24T02:00:35.128Z,96798.06
2022-08-24T02:03:03.702Z,96791.91
2022-08-24T02:05:31.899Z,96792.09
2022-08-24T02:08:00.032Z,96789.25
2022-08-24T02:10:28.528Z,96797.25
2022-08-24T02:12:59.402Z,96793.06
2022-08-24T02:15:30.269Z,96795.03
2022-08-24T02:17:59.060Z,96791.69
2022-08-24T02:20:28.715Z,96792.00
2022-08-24T02:22:57.078Z,96799.66
2022-08-24T02:25:26.363Z,96796.09
2022-08-24T02:27:54.456Z,96793.75
2022-08-24T02:30:23.692Z,96796.09
2022-08-24T02:32:51.587Z,96797.56
2022-08-24T02:35:19.951Z,96794.06
2022-08-24T02:37:49.747Z,96798.25
2022-08-24T02:40:18.241Z,96799.53
2022-08-24T02:42:46.993Z,96791.84
2022-08-24T02:45:15.420Z,96795.13
2022-08-24T02:47:45.185Z,96793.63
2022-08-24T02:50:15.593Z,96789.66
2022-08-24T02:52:45.051Z,96794.78
2022-08-24T02:55:15.208Z,96786.75
2022-08-24T02:57:43.293Z,96791.28
2022-08-24T03:00:15.619Z,96787.38
2022-08-24T03:02:53.198Z,96792.00
2022-08-24T03:05:23.511Z,96792.34
2022-08-24T03:07:52.280Z,96788.69
2022-08-24T03:10:21.279Z,96791.66
2022-08-24T03:12:49.695Z,96782.81
2022-08-24T03:15:22.496Z,96784.47
2022-08-24T03:17:52.263Z,96777.34
2022-08-24T03:20:22.468Z,96780.97
2022-08-24T03:22:51.333Z,96776.94
2022-08-24T03:25:20.825Z,96781.75
2022-08-24T03:27:48.837Z,96774.06
2022-08-24T03:30:19.725Z,96785.34
2022-08-24T03:32:50.393Z,96783.69
2022-08-24T03:35:21.981Z,96784.34
2022-08-24T03:37:50.872Z,96783.81
2022-08-24T03:40:23.110Z,96780.59
2022-08-24T03:42:55.521Z,96786.38
2022-08-24T03:45:24.110Z,96786.88
2022-08-24T03:47:53.227Z,96783.22
2022-08-24T03:50:24.660Z,96791.22
2022-08-24T03:52:53.229Z,96789.69
2022-08-24T03:55:21.715Z,96793.31
2022-08-24T03:57:50.074Z,96786.28
2022-08-24T04:00:18.560Z,96797.97
2022-08-24T04:02:56.332Z,96796.41
2022-08-24T04:05:27.651Z,96805.41
2022-08-24T04:08:02.864Z,96808.53
2022-08-24T04:10:30.862Z,96799.84
2022-08-24T04:13:01.424Z,96794.81
2022-08-24T04:15:32.172Z,96793.28
2022-08-24T04:18:00.213Z,96803.25
2022-08-24T04:20:29.568Z,96800.47
2022-08-24T04:22:57.626Z,96804.41
2022-08-24T04:25:25.819Z,96805.09
2022-08-24T04:27:53.754Z,96811.16
2022-08-24T04:30:24.691Z,96805.44
2022-08-24T04:33:15.192Z,96804.22
2022-08-24T04:35:48.309Z,96805.19
2022-08-24T04:38:17.884Z,96810.38
2022-08-24T04:41:00.216Z,96810.38
2022-08-24T04:43:28.666Z,96807.72
2022-08-24T04:45:59.320Z,96808.28
2022-08-24T04:48:27.352Z,96815.56
2022-08-24T04:50:56.693Z,96821.88
2022-08-24T04:53:24.550Z,96815.84
2022-08-24T04:55:54.072Z,96822.25
2022-08-24T04:58:22.200Z,96820.00
2022-08-24T05:00:50.468Z,96825.03
2022-08-24T05:03:19.303Z,96823.75
2022-08-24T05:05:50.186Z,96819.41
2022-08-24T05:08:20.918Z,96820.91
2022-08-24T05:10:51.394Z,96834.50
2022-08-24T05:13:21.311Z,96830.00
2022-08-24T05:15:50.169Z,96830.84
2022-08-24T05:18:18.704Z,96827.56
2022-08-24T05:20:48.845Z,96833.44
2022-08-24T05:23:18.883Z,96841.88
2022-08-24T05:25:48.571Z,96840.03
2022-08-24T05:28:17.931Z,96842.38
2022-08-24T05:30:45.948Z,96838.75
2022-08-24T05:33:14.380Z,96834.34
2022-08-24T05:35:43.884Z,96834.72
2022-08-24T05:38:12.651Z,96838.59
2022-08-24T05:40:41.285Z,96840.50
2022-08-24T05:43:11.362Z,96833.03
2022-08-24T05:45:43.375Z,96835.94
2022-08-24T05:48:12.343Z,96838.84
2022-08-24T05:51:03.230Z,96845.91
2022-08-24T05:53:35.562Z,96840.25
2022-08-24T05:56:05.646Z,96848.63
2022-08-24T05:58:35.289Z,96847.34
2022-08-24T06:01:07.972Z,96854.66
2022-08-24T06:03:36.024Z,96848.72
2022-08-24T06:06:08.591Z,96855.09
2022-08-24T06:08:41.061Z,96854.66
2022-08-24T06:11:11.232Z,96857.50
2022-08-24T06:13:41.065Z,96859.25
2022-08-24T06:16:21.842Z,96852.31
2022-08-24T06:18:52.277Z,96855.34
2022-08-24T06:21:23.384Z,96848.41
2022-08-24T06:23:52.287Z,96842.41
2022-08-24T06:26:51.276Z,96851.31
2022-08-24T06:29:21.977Z,96851.19
2022-08-24T06:31:56.377Z,96857.78
2022-08-24T06:34:27.003Z,96857.09
2022-08-24T06:36:55.164Z,96846.13
2022-08-24T06:39:26.402Z,96839.47
2022-08-24T06:41:56.411Z,96847.84
2022-08-24T06:44:33.526Z,96852.53
2022-08-24T06:47:14.619Z,96858.44
2022-08-24T06:49:42.802Z,96861.31
2022-08-24T06:52:11.499Z,96865.16
2022-08-24T06:54:40.164Z,96861.50
2022-08-24T06:57:08.433Z,96869.38
2022-08-24T06:59:37.679Z,96865.56
2022-08-24T07:03:20.921Z,96869.59
2022-08-24T07:05:58.279Z,96864.59
2022-08-24T07:08:53.290Z,96867.91
2022-08-24T07:11:21.994Z,96864.56
2022-08-24T07:13:50.886Z,96858.06
2022-08-24T07:16:22.397Z,96861.22
2022-08-24T07:18:55.416Z,96862.19
2022-08-24T07:21:23.946Z,96865.84
2022-08-24T07:23:56.941Z,96864.47
2022-08-24T07:26:28.202Z,96863.78
2022-08-24T07:29:04.901Z,96865.59
2022-08-24T07:31:40.741Z,96866.91
2022-08-24T07:34:23.456Z,96867.34
2022-08-24T07:36:52.427Z,96869.19
2022-08-24T07:39:20.767Z,96859.25
2022-08-24T07:42:11.432Z,96865.22
2022-08-24T07:44:37.224Z,96863.97
2022-08-24T07:47:27.300Z,96859.41
2022-08-24T07:49:55.564Z,96867.34
2022-08-24T07:52:23.444Z,96862.09
2022-08-24T07:54:52.097Z,96863.34
2022-08-24T07:57:20.473Z,96858.78
2022-08-24T07:59:48.687Z,96858.59
2022-08-24T08:02:18.371Z,96861.31
2022-08-24T08:04:50.039Z,96860.03
2022-08-24T08:07:19.568Z,96861.06
2022-08-24T08:09:50.728Z,96863.69
2022-08-24T08:12:19.284Z,96870.13
2022-08-24T08:14:57.407Z,96866.09
2022-08-24T08:17:26.935Z,96861.34
2022-08-24T08:19:55.328Z,96863.34
2022-08-24T08:22:42.380Z,96866.06
2022-08-24T08:25:29.117Z,96875.72
2022-08-24T08:28:04.274Z,96874.66
2022-08-24T08:30:42.014Z,96872.56
2022-08-24T08:33:11.302Z,96877.28
2022-08-24T08:35:40.657Z,96873.13
2022-08-24T08:38:09.539Z,96879.31
2022-08-24T08:40:55.374Z,96874.91
2022-08-24T08:43:38.338Z,96876.03
2022-08-24T08:46:22.355Z,96863.63
2022-08-24T08:49:42.954Z,96862.75
2022-08-24T08:53:07.828Z,96859.97
2022-08-24T08:55:43.286Z,96859.97
2022-08-24T08:58:24.723Z,96856.00
2022-08-24T09:01:04.859Z,96851.06
2022-08-24T09:03:56.986Z,96851.22
2022-08-24T09:07:14.419Z,96850.56
2022-08-24T09:10:04.539Z,96859.41
2022-08-24T09:12:52.427Z,96852.72
2022-08-24T09:15:46.767Z,96862.72
2022-08-24T09:18:30.780Z,96847.59
2022-08-24T09:21:15.188Z,96855.28
2022-08-24T09:23:54.631Z,96853.66
2022-08-24T09:26:27.688Z,96851.81
2022-08-24T09:29:10.793Z,96854.81
2022-08-24T09:32:01.962Z,96855.69
2022-08-24T09:34:38.191Z,96847.38
2022-08-24T09:37:26.239Z,96845.31
2022-08-24T09:40:02.551Z,96859.25
2022-08-24T09:43:01.087Z,96851.16
2022-08-24T09:46:01.223Z,96849.09
2022-08-24T09:49:13.615Z,96853.06
2022-08-24T09:52:04.220Z,96847.47
2022-08-24T09:55:09.288Z,96857.25
2022-08-24T09:58:01.839Z,96854.16
2022-08-24T10:00:35.124Z,96856.03
2022-08-24T10:03:26.253Z,96843.75
2022-08-24T10:06:21.704Z,96853.53
2022-08-24T10:09:13.471Z,96846.09
2022-08-24T10:11:52.924Z,96855.06
2022-08-24T10:14:35.368Z,96843.00
2022-08-24T10:17:10.942Z,96845.47
2022-08-24T10:19:56.140Z,96840.50
2022-08-24T10:22:37.622Z,96840.69
2022-08-24T10:25:20.914Z,96838.63
2022-08-24T10:27:57.040Z,96839.88
2022-08-24T10:30:56.482Z,96835.47
2022-08-24T10:33:28.304Z,96834.22
2022-08-24T10:36:28.628Z,96830.50
2022-08-24T10:39:33.978Z,96827.56
2022-08-24T10:42:54.737Z,96830.28
2022-08-24T10:45:42.614Z,96821.53
2022-08-24T10:48:41.372Z,96831.72
2022-08-24T10:51:24.595Z,96822.56
2022-08-24T10:53:54.590Z,96830.91
2022-08-24T10:56:31.487Z,96826.50
2022-08-24T10:59:08.194Z,96826.94
2022-08-24T11:01:38.667Z,96828.41
2022-08-24T11:04:10.537Z,96825.91
2022-08-24T11:06:42.062Z,96821.94
2022-08-24T11:09:19.177Z,96819.66
2022-08-24T11:11:50.032Z,96828.59
2022-08-24T11:14:26.572Z,96812.19
2022-08-24T11:16:57.666Z,96816.50
2022-08-24T11:19:34.958Z,96818.81
2022-08-24T11:22:07.353Z,96815.06
2022-08-24T11:24:47.579Z,96803.41
2022-08-24T11:27:31.451Z,96801.09
2022-08-24T11:30:02.480Z,96806.31
2022-08-24T11:32:34.702Z,96798.81
2022-08-24T11:35:06.547Z,96800.03
2022-08-24T11:37:38.601Z,96796.69
2022-08-24T11:40:08.044Z,96795.22
2022-08-24T11:42:46.228Z,96797.28
2022-08-24T11:45:20.975Z,96790.25
2022-08-24T11:47:59.897Z,96797.47
2022-08-24T11:50:34.103Z,96794.59
2022-08-24T11:53:13.323Z,96805.78
2022-08-24T11:55:51.639Z,96798.69
2022-08-24T11:58:46.227Z,96794.56
2022-08-24T12:01:20.517Z,96788.25
2022-08-24T12:04:02.775Z,96784.28
2022-08-24T12:06:44.363Z,96779.06
2022-08-24T12:09:25.183Z,96787.38
2022-08-24T12:12:00.269Z,96778.44
2022-08-24T12:14:38.306Z,96780.50
2022-08-24T12:17:16.773Z,96786.09
2022-08-24T12:19:49.641Z,96782.78
2022-08-24T12:22:20.713Z,96788.81
2022-08-24T12:24:52.380Z,96776.88
2022-08-24T12:27:24.508Z,96775.59
2022-08-24T12:30:00.412Z,96775.56
2022-08-24T12:32:37.556Z,96764.94
2022-08-24T12:35:10.169Z,96773.97
2022-08-24T12:37:43.677Z,96773.03
2022-08-24T12:40:27.549Z,96768.06
2022-08-24T12:43:00.010Z,96773.50
2022-08-24T12:45:29.966Z,96769.81
2022-08-24T12:48:03.853Z,96765.06
2022-08-24T12:50:40.958Z,96767.06
2022-08-24T12:53:42.385Z,96762.84
2022-08-24T12:56:35.051Z,96771.13
2022-08-24T12:59:08.397Z,96770.97
2022-08-24T13:01:41.916Z,96762.75
2022-08-24T13:04:19.531Z,96757.34
2022-08-24T13:06:55.295Z,96760.38
2022-08-24T13:09:33.335Z,96757.28
2022-08-24T13:12:42.126Z,96757.88
2022-08-24T13:15:55.622Z,96762.75
2022-08-24T13:18:52.187Z,96765.47
2022-08-24T13:21:39.688Z,96757.16
2022-08-24T13:24:51.271Z,96755.72
2022-08-24T13:28:06.872Z,96755.69
2022-08-24T13:31:04.188Z,96744.19
2022-08-24T13:33:37.295Z,96746.88
2022-08-24T13:36:34.137Z,96747.50
2022-08-24T13:39:11.355Z,96746.13
2022-08-24T13:41:54.056Z,96743.34
2022-08-24T13:44:38.952Z,96745.91
2022-08-24T13:47:16.762Z,96739.38
2022-08-24T13:50:01.878Z,96748.63
2022-08-24T13:52:40.223Z,96746.41
2022-08-24T13:55:31.626Z,96743.34
2022-08-24T13:58:13.946Z,96746.03
2022-08-24T14:00:51.899Z,96742.63
2022-08-24T14:03:52.768Z,96727.28
2022-08-24T14:06:41.339Z,96743.91
2022-08-24T14:09:23.598Z,96732.91
2022-08-24T14:12:07.424Z,96725.41
2022-08-24T14:15:04.060Z,96732.47
2022-08-24T14:17:55.022Z,96730.19
2022-08-24T14:20:40.709Z,96728.50
2022-08-24T14:23:23.110Z,96732.03
2022-08-24T14:25:51.879Z,96722.22
2022-08-24T14:28:40.383Z,96725.38
2022-08-24T14:31:20.843Z,96723.28
2022-08-24T14:34:09.647Z,96721.63
2022-08-24T14:36:49.283Z,96716.22
2022-08-24T14:39:35.835Z,96713.09
2022-08-24T14:42:16.739Z,96723.28
2022-08-24T14:45:02.375Z,96718.69
2022-08-24T14:47:44.332Z,96718.84
2022-08-24T14:50:16.076Z,96721.41
2022-08-24T14:52:54.876Z,96717.06
2022-08-24T14:55:31.276Z,96713.53
2022-08-24T14:58:09.156Z,96714.13
2022-08-24T15:00:53.987Z,96708.22
2022-08-24T15:03:44.670Z,96710.16
2022-08-24T15:06:27.839Z,96716.78
2022-08-24T15:09:08.931Z,96706.88
2022-08-24T15:11:39.158Z,96704.38
2022-08-24T15:14:09.690Z,96709.94
2022-08-24T15:16:53.254Z,96723.75
2022-08-24T15:19:28.711Z,96709.78
2022-08-24T15:22:03.759Z,96710.19
2022-08-24T15:24:41.320Z,96697.16
2022-08-24T15:27:20.352Z,96701.06
2022-08-24T15:29:52.976Z,96705.81
2022-08-24T15:32:21.649Z,96704.00
2022-08-24T15:34:58.282Z,96707.75
2022-08-24T15:37:31.542Z,96699.47
2022-08-24T15:40:00.345Z,96707.53
2022-08-24T15:42:31.251Z,96707.38
2022-08-24T15:45:02.504Z,96702.84
2022-08-24T15:47:33.960Z,96704.06
2022-08-24T15:50:04.096Z,96705.28
2022-08-24T15:52:47.914Z,96709.28
2022-08-24T15:55:36.223Z,96711.88
2022-08-24T15:58:28.334Z,96706.97
2022-08-24T16:01:19.583Z,96712.84
2022-08-24T16:03:51.329Z,96712.44
2022-08-24T16:06:26.006Z,96715.84
2022-08-24T16:09:02.563Z,96716.72
2022-08-24T16:11:34.906Z,96719.03
2022-08-24T16:14:03.754Z,96720.53
2022-08-24T16:16:37.907Z,96720.97
2022-08-24T16:19:08.752Z,96719.16
2022-08-24T16:21:39.213Z,96712.03
2022-08-24T16:24:13.443Z,96712.03
2022-08-24T16:26:58.146Z,96721.84
2022-08-24T16:29:55.628Z,96719.81
2022-08-24T16:32:33.743Z,96712.31
2022-08-24T16:35:19.592Z,96711.25
2022-08-24T16:37:47.492Z,96712.75
2022-08-24T16:40:17.382Z,96723.56
2022-08-24T16:42:46.060Z,96721.06
2022-08-24T16:45:18.404Z,96725.47
2022-08-24T16:47:46.961Z,96720.66
2022-08-24T16:50:16.479Z,96724.00
2022-08-24T16:52:44.368Z,96722.34
2022-08-24T16:55:14.498Z,96723.63
2022-08-24T16:57:44.961Z,96717.16
2022-08-24T17:00:17.357Z,96724.91
2022-08-24T17:02:46.586Z,96723.69
2022-08-24T17:05:15.594Z,96723.88
2022-08-24T17:07:44.105Z,96724.94
2022-08-24T17:10:15.406Z,96727.47
2022-08-24T17:12:45.028Z,96734.16
2022-08-24T17:15:16.110Z,96735.44
2022-08-24T17:17:49.144Z,96735.84
2022-08-24T17:20:17.138Z,96730.88
2022-08-24T17:22:45.105Z,96728.34
2022-08-24T17:25:13.684Z,96735.03
2022-08-24T17:27:42.182Z,96740.91
2022-08-24T17:30:16.546Z,96734.03
2022-08-24T17:32:44.948Z,96738.81
2022-08-24T17:35:12.871Z,96740.09
2022-08-24T17:37:41.146Z,96744.25
2022-08-24T17:40:14.171Z,96748.44
2022-08-24T17:42:51.850Z,96744.28
2022-08-24T17:45:23.163Z,96749.50
2022-08-24T17:47:52.602Z,96757.22
2022-08-24T17:50:24.189Z,96751.56
2022-08-24T17:52:58.836Z,96750.13
2022-08-24T17:55:29.050Z,96754.31
2022-08-24T17:57:57.097Z,96756.59
2022-08-24T18:00:26.692Z,96756.19
2022-08-24T18:02:54.586Z,96759.31
2022-08-24T18:05:22.670Z,96754.53
2022-08-24T18:07:54.478Z,96758.69
2022-08-24T18:10:25.921Z,96756.66
2022-08-24T18:12:54.325Z,96763.53
2022-08-24T18:15:30.105Z,96758.94
2022-08-24T18:18:08.776Z,96757.09
2022-08-24T18:20:39.880Z,96759.38
2022-08-24T18:23:11.375Z,96760.00
2022-08-24T18:25:44.793Z,96765.19
2022-08-24T18:28:13.184Z,96768.50
2022-08-24T18:30:41.844Z,96763.91
2022-08-24T18:33:13.396Z,96762.69
2022-08-24T18:35:41.526Z,96778.66
2022-08-24T18:38:09.690Z,96777.63
2022-08-24T18:40:38.074Z,96783.66
2022-08-24T18:43:06.746Z,96789.25
2022-08-24T18:45:36.034Z,96781.97
2022-08-24T18:48:04.519Z,96786.53
2022-08-24T18:50:37.752Z,96790.50
2022-08-24T18:53:09.016Z,96790.25
2022-08-24T18:55:38.639Z,96787.13
2022-08-24T18:58:07.485Z,96790.44
2022-08-24T19:00:35.546Z,96793.56
2022-08-24T19:03:07.319Z,96787.09
2022-08-24T19:05:38.309Z,96790.41
2022-08-24T19:08:06.497Z,96790.78
2022-08-24T19:10:37.201Z,96792.44
2022-08-24T19:13:08.974Z,96795.53
2022-08-24T19:15:40.346Z,96800.88
2022-08-24T19:18:09.745Z,96807.75
2022-08-24T19:20:48.075Z,96801.06
2022-08-24T19:23:21.133Z,96801.50
2022-08-24T19:25:50.028Z,96805.44
2022-08-24T19:28:18.098Z,96799.34
2022-08-24T19:30:46.968Z,96804.75
2022-08-24T19:33:20.387Z,96796.63
2022-08-24T19:35:51.952Z,96798.03
2022-08-24T19:38:23.358Z,96801.78
2022-08-24T19:40:54.458Z,96799.69
2022-08-24T19:43:23.778Z,96801.09
2022-08-24T19:46:03.244Z,96801.50
2022-08-24T19:48:31.862Z,96796.25
2022-08-24T19:51:03.417Z,96805.38
2022-08-24T19:53:45.372Z,96801.38
2022-08-24T19:56:37.545Z,96791.19
2022-08-24T19:59:24.626Z,96797.81
2022-08-24T20:01:53.507Z,96801.50
2022-08-24T20:04:21.482Z,96806.44
2022-08-24T20:06:50.825Z,96799.56
2022-08-24T20:09:21.802Z,96804.53
2022-08-24T20:11:51.525Z,96806.78
2022-08-24T20:14:19.453Z,96808.00
2022-08-24T20:16:47.431Z,96804.88
2022-08-24T20:19:15.347Z,96807.94
2022-08-24T20:21:43.303Z,96808.53
2022-08-24T20:24:12.618Z,96805.84
2022-08-24T20:26:43.585Z,96802.06
2022-08-24T20:29:12.519Z,96804.94
2022-08-24T20:31:41.337Z,96810.75
2022-08-24T20:34:09.251Z,96810.94
2022-08-24T20:36:39.481Z,96809.66
2022-08-24T20:39:13.670Z,96810.25
2022-08-24T20:41:41.727Z,96806.91
2022-08-24T20:44:10.236Z,96805.63
2022-08-24T20:46:39.436Z,96809.72
2022-08-24T20:49:08.242Z,96803.91
2022-08-24T20:51:43.219Z,96808.78
2022-08-24T20:54:14.666Z,96799.63
2022-08-24T20:56:44.640Z,96802.91
2022-08-24T20:59:14.280Z,96807.38
2022-08-24T21:01:43.481Z,96799.69
2022-08-24T21:04:11.886Z,96802.56
2022-08-24T21:06:41.490Z,96801.47
2022-08-24T21:09:12.703Z,96808.72
2022-08-24T21:11:46.232Z,96805.56
2022-08-24T21:14:14.187Z,96804.53
2022-08-24T21:16:44.313Z,96812.19
2022-08-24T21:19:17.493Z,96806.78
2022-08-24T21:21:46.818Z,96805.31
2022-08-24T21:24:15.459Z,96805.50
2022-08-24T21:26:44.961Z,96808.75
2022-08-24T21:29:12.810Z,96801.06
2022-08-24T21:31:42.434Z,96803.28
2022-08-24T21:34:28.117Z,96807.38
2022-08-24T21:36:56.110Z,96805.72
2022-08-24T21:39:24.013Z,96812.31
2022-08-24T21:41:53.437Z,96804.81
2022-08-24T21:44:21.287Z,96796.47
2022-08-24T21:46:51.867Z,96795.44
2022-08-24T21:49:20.111Z,96802.84
2022-08-24T21:51:48.112Z,96814.84
2022-08-24T21:54:16.067Z,96807.53
2022-08-24T21:56:43.937Z,96806.31
2022-08-24T21:59:13.656Z,96810.22
2022-08-24T22:01:41.894Z,96805.53
2022-08-24T22:04:09.808Z,96805.28
2022-08-24T22:06:38.075Z,96807.97
2022-08-24T22:09:07.282Z,96803.97
2022-08-24T22:11:35.514Z,96797.94
2022-08-24T22:14:04.767Z,96800.19
2022-08-24T22:16:37.167Z,96794.72
2022-08-24T22:19:05.753Z,96788.84
2022-08-24T22:21:35.768Z,96796.28
2022-08-24T22:24:04.876Z,96792.31
2022-08-24T22:26:32.824Z,96800.56
2022-08-24T22:29:01.676Z,96796.19
2022-08-24T22:31:31.973Z,96789.53
2022-08-24T22:34:03.736Z,96801.28
2022-08-24T22:36:31.622Z,96796.94
2022-08-24T22:39:00.102Z,96794.25
2022-08-24T22:41:29.394Z,96786.25
2022-08-24T22:44:15.533Z,96783.28
2022-08-24T22:46:43.926Z,96786.84
2022-08-24T22:49:13.590Z,96773.56
2022-08-24T22:51:42.199Z,96780.59
2022-08-24T22:54:11.328Z,96777.63
2022-08-24T22:56:42.157Z,96775.69
2022-08-24T22:59:14.720Z,96777.44
2022-08-24T23:01:45.763Z,96781.13
2022-08-24T23:04:18.255Z,96776.59
2022-08-24T23:06:46.347Z,96778.69
2022-08-24T23:09:14.390Z,96773.88
2022-08-24T23:11:42.609Z,96774.91
2022-08-24T23:14:14.574Z,96776.72
2022-08-24T23:16:47.689Z,96772.25
2022-08-24T23:19:36.143Z,96771.59
2022-08-24T23:22:05.594Z,96769.94
2022-08-24T23:24:34.075Z,96763.91
2022-08-24T23:27:03.050Z,96766.59
2022-08-24T23:29:33.565Z,96761.25
2022-08-24T23:32:01.864Z,96757.91
2022-08-24T23:34:31.846Z,96761.63
2022-08-24T23:37:00.148Z,96762.16
2022-08-24T23:39:28.795Z,96761.00
2022-08-24T23:41:57.059Z,96752.50
2022-08-24T23:44:28.481Z,96754.31
2022-08-24T23:46:57.996Z,96749.59
2022-08-24T23:49:28.109Z,96747.59
2022-08-24T23:51:59.571Z,96747.00
2022-08-24T23:54:28.248Z,96748.66
2022-08-24T23:56:57.505Z,96738.13
2022-08-24T23:59:29.328Z,96743.00
